Time;durP1;ratioP1;P1;durP2;ratioP2;P2;SDS_P1;SDS_P2;PMS_P1;PMS_P2;Temp;Humidity;BMP_temperature;BMP_pressure;BME280_temperature;BME280_humidity;BME280_pressure;Samples;Min_cycle;Max_cycle;Signal;HPM_P1;HPM_P2
2023/07/13 00:01:18;;;;;;;3.40;2.37;;;20.60;82.90;;;20.59;57.01;100719.16;5028937;28;20231;-76
2023/07/13 00:03:46;;;;;;;3.83;2.00;;;20.60;83.10;;;20.53;57.20;100717.34;5029300;28;20256;-75
2023/07/13 00:06:14;;;;;;;3.57;2.13;;;20.50;83.50;;;20.41;57.83;100716.41;5028611;28;20237;-75
2023/07/13 00:08:43;;;;;;;5.00;2.40;;;20.40;83.60;;;20.48;57.95;100719.09;5029389;28;20235;-75
2023/07/13 00:11:11;;;;;;;6.50;2.20;;;20.50;84.60;;;20.48;57.87;100713.66;5028630;28;20657;-75
2023/07/13 00:13:39;;;;;;;4.57;2.30;;;20.50;84.40;;;20.46;57.72;100711.16;5028461;28;20207;-74
2023/07/13 00:16:11;;;;;;;5.23;2.50;;;20.50;84.30;;;20.44;58.36;100720.59;5029321;28;20207;-75
2023/07/13 00:18:40;;;;;;;4.27;2.47;;;20.50;84.50;;;20.39;58.29;100721.25;5030858;28;20246;-75
2023/07/13 00:21:08;;;;;;;4.63;2.30;;;20.40;84.60;;;20.24;58.55;100716.13;5033276;28;20262;-75
2023/07/13 00:23:39;;;;;;;3.13;2.20;;;20.20;84.90;;;20.20;59.33;100722.28;5032703;28;20256;-75
2023/07/13 00:26:10;;;;;;;3.60;2.10;;;20.20;85.70;;;20.17;58.69;100718.09;5032665;28;20266;-75
2023/07/13 00:28:41;;;;;;;5.93;2.40;;;20.20;85.70;;;20.11;59.14;100723.59;5032950;28;20260;-75
2023/07/13 00:31:14;;;;;;;4.83;2.80;;;20.10;86.20;;;20.08;59.13;100732.19;5032625;28;20226;-75
2023/07/13 00:33:42;;;;;;;5.40;2.80;;;20.10;86.10;;;19.95;59.63;100726.88;5032816;28;20340;-75
2023/07/13 00:36:12;;;;;;;3.50;2.33;;;20.00;86.80;;;19.69;60.53;100730.63;5024496;28;20230;-75
2023/07/13 00:38:40;;;;;;;3.33;2.33;;;19.80;87.30;;;19.66;60.94;100723.75;5032953;28;20244;-75
2023/07/13 00:41:10;;;;;;;4.57;2.40;;;19.70;87.80;;;19.59;61.10;100728.38;5032480;28;20304;-75
2023/07/13 00:43:38;;;;;;;5.53;2.40;;;19.70;88.00;;;19.54;61.31;100727.38;5032406;28;20203;-75
2023/07/13 00:46:31;;;;;;;4.47;2.40;;;19.70;88.70;;;19.56;61.36;100726.13;5032117;28;20276;-75
2023/07/13 00:49:05;;;;;;;4.83;3.17;;;19.70;88.90;;;19.60;61.39;100721.91;5032402;28;20592;-76
2023/07/13 00:51:41;;;;;;;5.60;2.40;;;19.70;89.20;;;19.49;61.59;100722.59;5032604;28;20597;-75
2023/07/13 00:54:15;;;;;;;4.17;2.20;;;19.60;89.10;;;19.59;61.10;100720.25;5032111;28;20675;-75
2023/07/13 00:56:47;;;;;;;5.10;2.43;;;19.70;88.90;;;19.73;60.96;100716.38;5032424;28;20777;-73
2023/07/13 00:59:19;;;;;;;4.60;2.37;;;19.80;88.60;;;19.74;60.75;100717.22;5033328;28;20203;-75
2023/07/13 01:01:49;;;;;;;3.20;2.10;;;19.90;88.50;;;19.83;60.16;100720.50;5032414;28;20251;-74
2023/07/13 01:04:19;;;;;;;3.37;2.33;;;20.00;88.00;;;19.81;60.40;100715.28;5031946;28;20810;-75
2023/07/13 01:06:48;;;;;;;3.97;2.37;;;19.90;87.70;;;19.81;60.43;100709.84;5032276;28;20574;-75
2023/07/13 01:09:17;;;;;;;3.20;2.33;;;19.90;89.20;;;19.84;60.42;100711.28;5032346;28;20217;-76
2023/07/13 01:11:46;;;;;;;3.17;2.00;;;19.90;88.10;;;19.82;60.62;100713.41;5031677;28;20653;-74
2023/07/13 01:14:15;;;;;;;4.47;2.43;;;19.90;88.20;;;19.76;60.81;100711.56;5031808;28;20222;-74
2023/07/13 01:16:47;;;;;;;3.90;2.27;;;19.80;88.40;;;19.71;60.48;100713.06;5031953;28;20297;-75
2023/07/13 01:19:39;;;;;;;3.63;2.23;;;19.80;88.40;;;19.72;60.78;100703.88;5032290;28;20210;-74
2023/07/13 01:22:13;;;;;;;3.60;2.30;;;19.80;88.80;;;19.73;60.82;100704.69;5031508;28;20230;-75
2023/07/13 01:24:47;;;;;;;4.77;2.47;;;19.70;88.60;;;19.68;60.88;100713.50;5031346;28;20226;-74
2023/07/13 01:27:18;;;;;;;3.97;2.40;;;19.70;88.90;;;19.60;60.99;100715.63;5031616;28;20233;-75
2023/07/13 01:29:47;;;;;;;3.17;2.47;;;19.60;89.10;;;19.56;60.78;100715.25;5031577;28;20712;-75
2023/07/13 01:32:23;;;;;;;3.43;2.23;;;19.60;88.90;;;19.59;61.03;100714.81;5031511;28;20647;-75
2023/07/13 01:34:54;;;;;;;5.97;2.63;;;19.60;89.10;;;19.58;60.84;100712.31;5028312;28;20211;-74
2023/07/13 01:37:25;;;;;;;5.77;2.73;;;19.60;89.10;;;19.64;60.71;100706.00;5027765;28;20249;-74
2023/07/13 01:39:54;;;;;;;3.90;2.20;;;19.70;89.00;;;19.56;60.45;100712.53;5031555;28;20210;-74
2023/07/13 01:42:22;;;;;;;3.20;2.50;;;19.60;88.50;;;19.47;60.50;100711.16;5031423;28;20296;-75
2023/07/13 01:44:50;;;;;;;5.07;2.30;;;19.50;88.40;;;19.51;60.91;100711.53;5031252;28;20301;-75
2023/07/13 01:47:18;;;;;;;6.60;2.30;;;19.50;89.30;;;19.49;60.62;100724.47;5031123;28;20250;-75
2023/07/13 01:49:47;;;;;;;3.47;2.43;;;19.50;89.00;;;19.46;60.92;100720.34;5031445;28;20761;-75
2023/07/13 01:52:15;;;;;;;4.83;2.40;;;19.50;89.20;;;19.41;61.37;100722.88;5031201;28;20227;-74
2023/07/13 01:54:44;;;;;;;4.90;2.50;;;19.50;89.70;;;19.45;60.66;100724.09;5031061;28;20213;-75
2023/07/13 01:57:13;;;;;;;4.10;3.10;;;19.50;89.00;;;19.23;61.63;100720.03;5031015;28;20242;-75
2023/07/13 01:59:41;;;;;;;4.97;2.70;;;19.30;90.00;;;19.20;62.02;100715.03;5031275;28;20313;-75
2023/07/13 02:02:09;;;;;;;4.57;2.63;;;19.30;90.20;;;19.02;62.36;100712.19;5031183;28;20317;-75
2023/07/13 02:04:38;;;;;;;3.37;2.50;;;19.20;90.40;;;19.07;62.71;100717.81;5029181;28;20653;-74
2023/07/13 02:07:06;;;;;;;4.47;2.47;;;19.20;90.70;;;19.01;62.74;100721.38;5031151;28;20234;-74
2023/07/13 02:09:34;;;;;;;5.60;2.87;;;19.20;90.80;;;19.04;62.79;100729.91;5030743;28;20238;-75
2023/07/13 02:12:05;;;;;;;6.30;2.77;;;19.10;91.20;;;19.03;62.88;100725.56;5030668;28;20801;-75
2023/07/13 02:14:33;;;;;;;5.33;2.70;;;19.20;90.80;;;18.91;63.37;100731.84;5031034;28;20299;-74
2023/07/13 02:17:02;;;;;;;4.83;2.60;;;19.00;91.00;;;18.73;63.64;100732.56;5030665;28;20203;-74
2023/07/13 02:19:30;;;;;;;7.43;3.00;;;18.90;91.30;;;18.74;63.83;100726.91;5031095;28;20217;-75
2023/07/13 02:21:58;;;;;;;4.57;2.53;;;18.90;91.40;;;18.80;63.28;100733.38;5030465;28;20254;-74
2023/07/13 02:24:27;;;;;;;4.20;2.70;;;19.00;91.20;;;18.86;63.49;100734.41;5030010;28;20207;-74
2023/07/13 02:26:55;;;;;;;7.20;3.13;;;19.00;91.30;;;18.83;63.47;100735.66;5030668;28;20254;-75
2023/07/13 02:29:25;;;;;;;5.10;2.60;;;18.90;91.30;;;18.62;64.13;100734.06;5030455;28;20305;-75
2023/07/13 02:31:53;;;;;;;5.93;3.10;;;18.80;91.60;;;18.57;64.32;100738.44;5030769;28;20230;-74
2023/07/13 02:34:21;;;;;;;6.93;2.87;;;18.70;91.80;;;18.51;64.33;100740.13;5029870;28;20215;-74
2023/07/13 02:36:49;;;;;;;5.07;2.90;;;18.70;91.90;;;18.57;64.11;100730.28;5020325;28;20230;-74
2023/07/13 02:39:17;;;;;;;6.73;3.00;;;18.70;92.00;;;18.62;64.07;100744.91;5010845;28;20215;-74
2023/07/13 02:41:45;;;;;;;5.00;3.10;;;18.70;92.00;;;18.58;64.48;100740.94;5010736;28;20314;-74
2023/07/13 02:44:14;;;;;;;5.60;3.13;;;18.70;92.10;;;18.42;64.70;100738.66;5010466;28;20310;-74
2023/07/13 02:46:44;;;;;;;4.17;2.83;;;18.60;92.10;;;18.21;65.48;100736.19;5009535;28;20426;-75
2023/07/13 02:49:12;;;;;;;6.53;3.30;;;18.50;92.30;;;18.35;65.16;100732.41;5010215;28;20713;-74
2023/07/13 02:51:40;;;;;;;6.30;2.90;;;18.50;92.60;;;18.20;65.38;100737.22;5010469;28;20288;-74
2023/07/13 02:54:11;;;;;;;4.80;2.80;;;18.30;92.70;;;18.24;65.14;100738.47;5009965;28;20294;-74
2023/07/13 02:56:39;;;;;;;7.30;2.83;;;18.40;92.70;;;18.32;64.64;100737.44;5010460;28;20230;-74
2023/07/13 02:59:08;;;;;;;5.90;3.00;;;18.50;92.50;;;18.32;65.04;100738.25;5009899;28;20258;-74
2023/07/13 03:01:36;;;;;;;5.50;2.77;;;18.50;92.50;;;18.34;64.34;100748.88;5010148;28;20307;-74
2023/07/13 03:04:06;;;;;;;8.70;3.33;;;18.40;92.50;;;18.33;64.07;100750.75;5009905;28;20204;-74
2023/07/13 03:06:35;;;;;;;5.07;2.43;;;18.50;92.20;;;18.27;64.44;100750.75;5010006;28;20208;-75
2023/07/13 03:09:04;;;;;;;3.70;2.70;;;18.40;92.40;;;18.32;64.20;100746.41;5010387;28;20318;-73
2023/07/13 03:11:32;;;;;;;4.63;2.67;;;18.40;92.50;;;18.28;64.87;100749.72;5009860;28;20261;-75
2023/07/13 03:14:00;;;;;;;7.23;2.97;;;18.40;92.50;;;18.26;65.00;100749.91;5009732;28;20207;-74
2023/07/13 03:16:28;;;;;;;6.70;2.97;;;18.40;92.60;;;18.28;64.58;100750.56;5010028;28;20281;-74
2023/07/13 03:18:56;;;;;;;4.90;2.73;;;18.40;92.40;;;18.17;64.89;100745.78;5010134;28;20208;-74
2023/07/13 03:21:26;;;;;;;5.03;2.57;;;18.30;92.60;;;18.19;64.26;100749.09;5009754;28;20743;-74
2023/07/13 03:23:54;;;;;;;3.93;2.90;;;18.30;92.50;;;18.07;64.63;100743.50;5009031;28;20273;-75
2023/07/13 03:26:23;;;;;;;5.03;3.03;;;18.20;92.70;;;18.12;64.68;100737.41;5013097;28;20206;-75
2023/07/13 03:28:51;;;;;;;6.47;2.63;;;18.20;92.70;;;18.17;64.70;100735.78;5029554;28;20222;-74
2023/07/13 03:31:23;;;;;;;8.23;2.70;;;18.30;92.60;;;18.20;64.43;100735.34;5028334;28;20234;-74
2023/07/13 03:33:51;;;;;;;4.97;2.70;;;18.30;92.70;;;18.15;64.67;100742.44;5029525;28;20199;-74
2023/07/13 03:36:23;;;;;;;5.00;3.10;;;18.30;92.60;;;18.14;64.38;100743.47;5021251;28;20234;-75
2023/07/13 03:38:57;;;;;;;6.27;2.70;;;18.20;92.60;;;18.17;64.97;100741.19;5029572;28;20206;-75
2023/07/13 03:41:26;;;;;;;5.13;2.80;;;18.30;92.80;;;18.17;64.42;100745.78;5027480;28;20804;-74
2023/07/13 03:43:54;;;;;;;5.13;2.80;;;18.30;92.40;;;18.19;64.74;100749.09;5028818;28;20635;-74
2023/07/13 03:46:23;;;;;;;6.40;2.40;;;18.30;92.50;;;18.19;63.37;100754.50;5028969;28;20297;-74
2023/07/13 03:48:51;;;;;;;5.00;2.60;;;18.30;92.10;;;18.00;64.54;100755.34;5028419;28;20230;-75
2023/07/13 03:51:20;;;;;;;5.67;2.53;;;18.20;92.50;;;17.97;64.77;100751.19;5029224;28;20234;-74
2023/07/13 03:53:49;;;;;;;6.63;3.20;;;18.10;92.60;;;17.95;64.34;100752.44;5028019;28;20206;-75
2023/07/13 03:56:20;;;;;;;6.67;3.00;;;18.10;92.60;;;17.93;64.30;100752.66;5028721;28;20298;-74
2023/07/13 03:58:51;;;;;;;4.53;2.40;;;18.10;92.70;;;18.02;64.41;100753.25;5029423;28;20226;-74
2023/07/13 04:01:22;;;;;;;5.57;2.43;;;18.20;92.70;;;18.02;64.86;100764.09;5029336;28;20227;-74
2023/07/13 04:03:50;;;;;;;10.20;3.00;;;18.20;92.80;;;17.86;64.65;100759.09;5028910;28;20313;-75
2023/07/13 04:06:24;;;;;;;21.17;4.30;;;18.10;92.60;;;17.93;65.06;100759.94;5028810;28;20203;-74
2023/07/13 04:08:55;;;;;;;9.13;2.90;;;18.10;92.80;;;17.88;64.82;100755.13;5028834;28;20231;-74
2023/07/13 04:11:28;;;;;;;8.97;3.23;;;18.10;92.70;;;17.88;64.72;100762.41;5028962;28;20269;-74
2023/07/13 04:13:57;;;;;;;6.90;2.80;;;18.00;92.80;;;17.92;63.92;100767.22;5028876;28;20207;-75
2023/07/13 04:16:26;;;;;;;7.97;2.80;;;18.10;92.60;;;17.91;64.18;100762.03;5009829;28;20310;-74
2023/07/13 04:18:59;;;;;;;5.23;2.60;;;18.10;92.60;;;17.80;64.71;100770.75;5009412;28;20261;-74
2023/07/13 04:21:28;;;;;;;4.30;2.50;;;18.00;92.50;;;17.72;64.78;100775.34;5009380;28;20227;-74
2023/07/13 04:23:57;;;;;;;5.67;2.77;;;18.00;92.80;;;17.81;65.09;100773.25;5008955;28;20290;-74
2023/07/13 04:26:26;;;;;;;5.53;2.60;;;18.00;92.90;;;17.78;64.90;100762.84;5009393;28;20630;-74
2023/07/13 04:28:55;;;;;;;4.83;2.30;;;18.00;92.80;;;17.84;64.32;100772.03;5008239;28;20347;-74
2023/07/13 04:31:23;;;;;;;5.90;2.60;;;18.00;92.60;;;17.87;64.60;100766.19;5009072;28;20231;-75
2023/07/13 04:33:53;;;;;;;6.83;2.50;;;18.10;92.90;;;17.86;64.20;100759.94;5008767;28;20203;-75
2023/07/13 04:36:21;;;;;;;5.63;2.87;;;18.20;93.00;;;17.94;64.42;100767.88;5014212;28;20570;-73
2023/07/13 04:38:49;;;;;;;6.57;2.83;;;18.20;92.70;;;17.88;64.31;100773.25;5009529;28;20925;-74
2023/07/13 04:41:17;;;;;;;8.60;2.97;;;18.10;92.30;;;17.91;64.21;100767.44;5008887;28;20224;-74
2023/07/13 04:43:47;;;;;;;5.47;2.77;;;18.20;92.40;;;17.88;63.86;100765.13;5008674;28;20261;-75
2023/07/13 04:46:19;;;;;;;7.50;2.70;;;18.20;92.30;;;17.92;64.74;100769.09;5008738;28;20754;-73
2023/07/13 04:48:50;;;;;;;7.07;2.73;;;18.20;92.60;;;17.92;64.10;100769.09;5013181;28;20703;-74
2023/07/13 04:51:18;;;;;;;5.77;2.50;;;18.20;92.30;;;17.94;64.28;100769.75;5028632;28;20313;-75
2023/07/13 04:53:47;;;;;;;4.83;2.60;;;18.20;92.50;;;17.89;64.35;100777.63;5028502;28;20302;-76
2023/07/13 04:56:15;;;;;;;6.10;2.40;;;18.10;92.40;;;17.91;64.30;100776.38;5028316;28;20637;-75
2023/07/13 04:58:43;;;;;;;5.10;2.30;;;18.20;92.50;;;17.88;63.64;100781.38;5028815;28;20234;-75
2023/07/13 05:01:13;;;;;;;5.13;2.73;;;18.20;92.40;;;17.92;64.04;100780.78;5028761;28;20294;-75
2023/07/13 05:03:42;;;;;;;5.60;2.43;;;18.20;92.50;;;17.86;63.76;100787.03;5028319;28;20207;-74
2023/07/13 05:06:10;;;;;;;8.07;2.60;;;18.10;92.50;;;17.84;64.19;100788.28;5031283;28;20257;-74
2023/07/13 05:08:39;;;;;;;6.37;2.63;;;18.10;92.60;;;17.94;64.93;100792.25;5031945;28;20288;-75
2023/07/13 05:11:07;;;;;;;6.40;2.53;;;18.20;92.80;;;17.96;64.32;100790.16;5032042;28;20870;-75
2023/07/13 05:13:36;;;;;;;8.13;2.43;;;18.20;92.70;;;17.99;64.31;100792.44;5032074;28;20230;-75
2023/07/13 05:16:07;;;;;;;7.93;2.80;;;18.30;92.40;;;17.96;63.47;100792.88;5031871;28;20203;-74
2023/07/13 05:18:38;;;;;;;6.33;2.60;;;18.30;92.20;;;17.92;63.47;100794.31;5031967;28;20585;-75
2023/07/13 05:21:12;;;;;;;9.87;2.90;;;18.20;92.20;;;17.98;63.78;100796.19;5031941;28;20218;-75
2023/07/13 05:23:42;;;;;;;7.67;2.43;;;18.30;92.30;;;17.93;64.06;100797.88;5032133;28;20214;-74
2023/07/13 05:26:11;;;;;;;8.73;2.70;;;18.20;92.30;;;18.00;64.56;100798.69;5032281;28;20207;-74
2023/07/13 05:28:40;;;;;;;6.57;2.87;;;18.30;92.50;;;17.99;63.39;100791.59;5031771;28;20246;-75
2023/07/13 05:31:10;;;;;;;11.20;3.30;;;18.30;92.00;;;18.05;62.85;100807.03;5031759;28;20842;-75
2023/07/13 05:33:40;;;;;;;14.53;3.00;;;18.40;91.80;;;18.06;62.81;100803.28;5031302;28;20203;-74
2023/07/13 05:36:09;;;;;;;11.10;3.07;;;18.40;91.60;;;18.05;62.55;100802.44;5019038;28;20667;-74
2023/07/13 05:38:37;;;;;;;12.33;2.87;;;18.40;91.60;;;18.12;62.42;100805.16;5029412;28;20745;-74
2023/07/13 05:41:05;;;;;;;7.77;2.77;;;18.40;91.50;;;18.15;62.28;100808.28;5031511;28;20222;-75
2023/07/13 05:43:34;;;;;;;9.70;2.60;;;18.50;91.40;;;18.15;62.29;100807.47;5032138;28;20233;-73
2023/07/13 05:46:02;;;;;;;8.03;2.47;;;18.50;91.10;;;18.12;61.70;100807.88;5031545;28;20276;-74
2023/07/13 05:48:32;;;;;;;5.40;2.40;;;18.50;90.70;;;18.11;61.79;100807.06;5031360;28;20690;-73
2023/07/13 05:51:02;;;;;;;7.73;2.60;;;18.40;90.80;;;18.10;61.44;100815.38;5031460;28;20252;-73
2023/07/13 05:53:30;;;;;;;6.30;2.50;;;18.40;90.80;;;18.14;61.58;100824.78;5031318;28;20235;-74
2023/07/13 05:55:58;;;;;;;7.23;2.50;;;18.50;90.90;;;18.12;61.90;100818.69;5030684;28;20575;-73
2023/07/13 05:58:30;;;;;;;9.03;2.30;;;18.50;90.90;;;18.14;61.13;100824.78;5031195;28;20214;-73
2023/07/13 06:01:04;;;;;;;5.00;2.00;;;18.50;90.50;;;18.18;61.63;100828.75;5031232;28;20211;-74
2023/07/13 06:03:32;;;;;;;10.00;2.40;;;18.50;90.80;;;18.13;61.29;100831.22;5031311;28;20206;-74
2023/07/13 06:06:02;;;;;;;9.13;2.43;;;18.50;90.50;;;18.11;61.66;100831.44;5031351;28;20674;-74
2023/07/13 06:08:31;;;;;;;34.37;4.83;;;18.40;90.80;;;18.13;60.94;100839.34;5031226;28;20207;-74
2023/07/13 06:11:05;;;;;;;15.53;2.67;;;18.50;90.70;;;18.15;61.34;100837.28;5031034;28;20220;-74
2023/07/13 06:13:34;;;;;;;9.90;2.60;;;18.50;90.70;;;18.25;61.66;100833.09;5030383;28;20653;-74
2023/07/13 06:16:04;;;;;;;6.97;3.00;;;18.60;90.90;;;18.12;61.63;100834.97;5030927;28;20242;-74
2023/07/13 06:18:33;;;;;;;8.27;2.80;;;18.50;90.60;;;18.19;62.08;100841.22;5030883;28;20627;-74
2023/07/13 06:21:08;;;;;;;9.67;3.30;;;18.50;90.80;;;18.12;61.32;100845.81;5030911;28;20703;-74
2023/07/13 06:23:37;;;;;;;7.93;2.80;;;18.50;90.60;;;18.18;61.42;100839.56;5030406;28;20245;-74
2023/07/13 06:26:06;;;;;;;10.57;2.80;;;18.50;90.70;;;18.22;61.75;100846.22;5031054;28;20749;-74
2023/07/13 06:28:37;;;;;;;6.37;2.43;;;18.60;90.90;;;18.23;61.33;100843.31;5030876;28;20234;-74
2023/07/13 06:31:08;;;;;;;7.93;3.00;;;18.60;90.60;;;18.33;62.09;100845.63;5030616;28;20325;-74
2023/07/13 06:33:36;;;;;;;10.50;3.20;;;18.70;91.00;;;18.36;60.98;100852.50;5030257;28;21050;-74
2023/07/13 06:36:09;;;;;;;13.53;3.10;;;18.70;90.40;;;18.40;60.84;100838.31;5022508;28;20294;-74
2023/07/13 06:38:37;;;;;;;7.83;3.27;;;18.70;90.10;;;18.44;60.90;100834.16;5030105;28;20605;-74
2023/07/13 06:41:07;;;;;;;9.33;3.30;;;18.80;90.10;;;18.54;60.50;100841.88;5019971;28;20254;-73
2023/07/13 06:43:35;;;;;;;9.03;3.00;;;18.90;90.10;;;18.53;59.96;100846.47;5010241;28;20683;-74
2023/07/13 06:46:04;;;;;;;12.93;3.43;;;18.90;89.50;;;18.65;59.87;100844.81;5010494;28;20656;-73
2023/07/13 06:48:32;;;;;;;9.10;3.20;;;19.10;89.90;;;18.74;60.49;100838.13;5012442;28;20207;-72
2023/07/13 06:51:00;;;;;;;8.93;3.13;;;19.10;90.10;;;18.80;59.51;100843.75;5030239;28;20334;-74
2023/07/13 06:53:29;;;;;;;8.47;3.30;;;19.40;89.70;;;18.86;59.65;100842.91;5028970;28;20231;-74
2023/07/13 06:55:58;;;;;;;9.87;3.60;;;19.30;89.10;;;18.82;59.10;100849.78;5029098;28;20694;-73
2023/07/13 06:58:26;;;;;;;9.10;2.97;;;19.20;88.50;;;18.93;59.81;100850.00;5029421;28;20234;-74
2023/07/13 07:00:54;;;;;;;14.47;3.30;;;19.30;89.70;;;19.00;60.01;100849.97;5030316;28;20290;-73
2023/07/13 07:03:22;;;;;;;7.27;3.40;;;19.40;89.80;;;19.05;59.44;100842.00;5029958;28;20565;-73
2023/07/13 07:05:51;;;;;;;9.20;3.30;;;19.40;89.10;;;19.07;59.80;100842.66;5030106;28;20238;-74
2023/07/13 07:08:19;;;;;;;8.33;3.23;;;19.40;89.10;;;19.05;59.60;100842.84;5030106;28;20289;-74
2023/07/13 07:10:53;;;;;;;6.80;2.90;;;19.40;89.10;;;19.00;59.66;100855.41;5029655;28;20249;-73
2023/07/13 07:13:21;;;;;;;10.37;3.33;;;19.40;89.30;;;18.88;59.48;100851.66;5029823;28;20296;-73
2023/07/13 07:15:52;;;;;;;9.37;3.30;;;19.30;88.80;;;18.92;59.81;100842.88;5029948;28;20249;-74
2023/07/13 07:18:20;;;;;;;9.40;3.90;;;19.30;89.50;;;18.97;58.54;100855.81;5029775;28;20679;-75
2023/07/13 07:20:50;;;;;;;10.30;2.90;;;19.40;88.00;;;18.99;59.13;100848.28;5029838;28;20249;-73
2023/07/13 07:23:18;;;;;;;20.73;4.10;;;19.30;88.40;;;18.97;58.72;100853.91;5029186;28;20198;-74
2023/07/13 07:25:48;;;;;;;8.13;3.13;;;19.40;88.10;;;19.01;59.97;100851.63;5029735;28;20641;-74
2023/07/13 07:28:18;;;;;;;4.43;2.60;;;19.30;89.30;;;19.12;60.36;100853.69;5028959;28;20215;-74
2023/07/13 07:30:54;;;;;;;10.30;2.80;;;19.50;90.40;;;19.13;58.66;100860.78;5029818;28;20253;-73
2023/07/13 07:33:42;;;;;;;9.33;2.83;;;19.50;88.00;;;19.07;58.13;100858.94;5029354;28;20218;-74
2023/07/13 07:36:11;;;;;;;5.37;2.67;;;19.40;87.30;;;19.14;58.35;100852.41;5023269;28;20258;-74
2023/07/13 07:38:42;;;;;;;7.70;2.67;;;19.50;87.10;;;19.21;59.16;100863.28;5028668;28;20289;-73
2023/07/13 07:41:12;;;;;;;4.30;2.50;;;19.50;87.80;;;19.24;56.98;100862.84;5029619;28;20237;-74
2023/07/13 07:43:43;;;;;;;6.63;2.40;;;19.60;85.60;;;19.30;55.71;100855.72;5029230;28;20210;-73
2023/07/13 07:46:11;;;;;;;6.77;2.40;;;19.70;84.80;;;19.34;55.72;100857.78;5029053;28;20297;-73
2023/07/13 07:48:41;;;;;;;4.60;2.13;;;19.70;84.30;;;19.21;55.70;100857.84;5029243;28;20234;-73
2023/07/13 07:51:09;;;;;;;5.03;2.20;;;19.60;83.90;;;19.31;57.18;100860.94;5029479;28;20257;-74
2023/07/13 07:53:37;;;;;;;9.63;2.43;;;19.70;85.50;;;19.41;55.62;100863.22;5027826;28;20316;-74
2023/07/13 07:56:06;;;;;;;10.03;2.47;;;19.80;84.00;;;19.48;55.48;100859.44;5028231;28;20626;-74
2023/07/13 07:58:55;;;;;;;4.60;2.20;;;19.90;84.30;;;19.61;55.38;100863.97;5029232;28;20215;-73
2023/07/13 08:01:26;;;;;;;8.07;2.50;;;20.00;83.70;;;19.72;57.40;100864.16;5029479;28;20231;-74
2023/07/13 08:03:57;;;;;;;8.87;2.40;;;20.10;86.00;;;19.66;55.14;100862.28;5021887;28;20304;-72
2023/07/13 08:06:29;;;;;;;12.00;2.50;;;20.10;82.90;;;19.71;55.24;100867.91;5028678;28;20210;-74
2023/07/13 08:09:12;;;;;;;5.47;2.53;;;20.10;83.30;;;19.78;56.23;100869.75;5009145;28;20217;-75
2023/07/13 08:11:40;;;;;;;7.50;2.10;;;20.10;84.40;;;19.82;54.63;100868.25;5009286;28;20262;-74
2023/07/13 08:14:13;;;;;;;7.07;2.40;;;20.20;82.50;;;19.79;54.25;100871.41;5009282;28;20213;-73
2023/07/13 08:16:41;;;;;;;6.77;2.63;;;20.10;82.00;;;19.85;54.71;100870.53;5009417;28;20215;-75
2023/07/13 08:19:11;;;;;;;9.03;2.57;;;20.20;82.30;;;19.85;53.83;100875.97;5008811;28;20207;-74
2023/07/13 08:21:39;;;;;;;8.10;2.47;;;20.20;81.40;;;19.94;54.33;100877.38;5009495;28;20219;-73
2023/07/13 08:24:08;;;;;;;4.77;2.80;;;20.30;81.70;;;19.94;53.90;100874.66;5009341;28;20207;-74
2023/07/13 08:26:37;;;;;;;6.30;2.07;;;20.30;81.60;;;20.03;54.78;100874.22;5009197;28;20207;-73
2023/07/13 08:29:05;;;;;;;9.53;2.63;;;20.30;82.40;;;20.12;53.93;100875.59;5009415;28;20208;-73
2023/07/13 08:31:34;;;;;;;9.23;2.30;;;20.50;81.80;;;20.10;53.59;100868.72;5009156;28;20322;-74
2023/07/13 08:34:03;;;;;;;7.67;2.30;;;20.50;80.80;;;20.15;53.66;100877.03;5010960;28;20291;-74
2023/07/13 08:36:31;;;;;;;6.23;2.23;;;20.50;81.10;;;20.13;54.10;100877.28;5021312;28;20207;-73
2023/07/13 08:38:59;;;;;;;6.73;2.30;;;20.40;81.20;;;20.14;53.77;100881.63;5029767;28;20298;-74
2023/07/13 08:41:28;;;;;;;6.70;2.43;;;20.50;81.10;;;20.20;54.06;100885.38;5032831;28;20227;-74
2023/07/13 08:44:01;;;;;;;5.57;2.33;;;20.50;81.50;;;20.22;53.80;100872.38;5032373;28;20674;-73
2023/07/13 08:46:39;;;;;;;6.80;2.60;;;20.50;81.20;;;20.24;54.02;100876.53;5032650;28;20769;-74
2023/07/13 08:49:15;;;;;;;6.90;2.40;;;20.50;81.60;;;20.30;55.38;100874.88;5032420;28;20205;-75
2023/07/13 08:51:49;;;;;;;7.20;2.40;;;20.60;83.40;;;20.28;53.80;100871.53;5032786;28;20325;-74
2023/07/13 08:54:31;;;;;;;4.17;2.27;;;20.60;81.30;;;20.33;53.54;100879.88;5032312;28;20237;-74
2023/07/13 08:57:04;;;;;;;6.17;2.63;;;20.60;81.50;;;20.25;53.86;100872.78;5032288;28;20516;-74
2023/07/13 08:59:35;;;;;;;5.90;2.17;;;20.60;80.70;;;20.27;54.11;100880.75;5032751;28;20302;-74
2023/07/13 09:02:25;;;;;;;7.60;2.00;;;20.50;81.60;;;20.23;54.25;100880.34;5032385;28;20670;-74
2023/07/13 09:05:03;;;;;;;6.10;2.37;;;20.50;82.00;;;20.28;54.56;100884.28;5026766;28;20298;-74
2023/07/13 09:07:55;;;;;;;6.57;2.57;;;20.50;81.70;;;20.34;54.17;100881.56;5027830;28;20217;-74
2023/07/13 09:10:31;;;;;;;5.70;2.57;;;20.60;81.40;;;20.42;54.19;100886.69;5012655;28;20211;-74
2023/07/13 09:13:21;;;;;;;8.30;2.73;;;20.70;81.50;;;20.41;53.98;100887.75;5011977;28;20727;-74
2023/07/13 09:15:51;;;;;;;8.37;2.43;;;20.70;81.10;;;20.41;53.78;100887.75;5012396;28;20211;-74
2023/07/13 09:18:31;;;;;;;5.50;2.20;;;20.70;80.90;;;20.25;53.57;100891.81;5011924;28;20251;-73
2023/07/13 09:21:05;;;;;;;6.07;2.00;;;20.50;80.70;;;20.21;53.66;100895.19;5012176;28;20235;-74
2023/07/13 09:23:33;;;;;;;8.57;2.83;;;20.40;80.90;;;20.24;54.28;100892.03;5011794;28;20620;-74
2023/07/13 09:26:07;;;;;;;11.80;2.60;;;20.50;82.00;;;20.37;53.78;100891.97;5012470;28;20243;-74
2023/07/13 09:28:43;;;;;;;8.97;2.40;;;20.60;81.50;;;20.51;53.64;100892.72;5012203;28;20250;-74
2023/07/13 09:31:20;;;;;;;6.83;2.83;;;20.80;81.10;;;20.55;54.45;100892.03;5012422;28;20234;-74
2023/07/13 09:33:50;;;;;;;6.40;2.40;;;20.90;81.80;;;20.52;53.80;100900.63;5011931;28;20218;-73
2023/07/13 09:36:26;;;;;;;6.40;2.23;;;20.80;81.20;;;20.60;53.68;100894.94;5023296;28;20210;-73
2023/07/13 09:39:05;;;;;;;7.27;2.13;;;20.90;80.80;;;20.84;54.04;100895.97;5031347;28;20226;-74
2023/07/13 09:41:42;;;;;;;7.10;2.30;;;21.10;81.50;;;20.98;54.34;100883.06;5031358;28;20226;-74
2023/07/13 09:44:13;;;;;;;4.30;2.20;;;21.30;81.70;;;21.13;51.91;100886.31;5031049;28;20876;-75
2023/07/13 09:46:53;;;;;;;8.47;2.67;;;21.40;78.40;;;21.15;50.83;100878.75;5031022;28;20248;-74
2023/07/13 09:49:27;;;;;;;10.93;3.30;;;21.50;77.50;;;21.26;51.50;100894.34;5031365;28;20285;-74
2023/07/13 09:52:02;;;;;;;6.93;2.30;;;21.50;78.50;;;21.29;50.59;100885.69;5030247;28;20714;-74
2023/07/13 09:54:35;;;;;;;5.97;2.30;;;21.60;77.20;;;21.42;51.33;100884.72;5031107;28;20232;-74
2023/07/13 09:57:13;;;;;;;5.53;2.50;;;21.70;77.80;;;21.43;51.58;100892.66;5030445;28;20345;-74
2023/07/13 09:59:46;;;;;;;6.20;2.60;;;21.80;77.60;;;21.58;50.62;100879.47;5031036;28;20745;-75
2023/07/13 10:02:32;;;;;;;10.13;2.37;;;21.90;76.90;;;21.58;51.04;100882.19;5030859;28;20730;-74
2023/07/13 10:05:04;;;;;;;8.47;2.07;;;21.60;76.50;;;21.70;49.14;100883.09;5030804;28;20305;-73
2023/07/13 10:07:38;;;;;;;4.73;2.10;;;22.00;74.80;;;21.81;49.17;100884.22;5030990;28;20211;-74
2023/07/13 10:10:17;;;;;;;6.17;2.33;;;22.10;75.00;;;21.83;49.82;100881.25;5030962;28;20242;-74
2023/07/13 10:12:46;;;;;;;7.03;2.30;;;22.10;75.10;;;21.77;49.86;100882.19;5030618;28;20725;-74
2023/07/13 10:15:18;;;;;;;5.50;2.20;;;22.00;75.20;;;21.64;49.99;100888.66;5030402;28;20301;-73
2023/07/13 10:17:54;;;;;;;5.70;2.37;;;21.90;75.20;;;21.67;50.64;100880.00;5031217;28;20211;-74
2023/07/13 10:20:27;;;;;;;8.73;2.10;;;21.90;75.40;;;21.80;49.49;100887.16;5030640;28;20230;-74
2023/07/13 10:23:02;;;;;;;5.73;2.00;;;22.10;75.20;;;21.73;49.04;100879.91;5030351;28;20253;-73
2023/07/13 10:25:38;;;;;;;6.63;2.20;;;22.10;74.40;;;21.79;49.37;100877.31;5030582;28;20214;-74
2023/07/13 10:28:28;;;;;;;8.27;2.30;;;22.00;74.70;;;21.92;49.81;100879.91;5029423;28;20214;-73